Croghan, NY

7:02 AM EDT on May 23, 2015 (GMT -0400)
Indian River, NY | | Change Station
CLOSE
Current Station
Personal Weather Station
Location: Croghan, NY
Elevation: 1043 ft
Nearby Weather Stations
Active Advisory: Freeze Warning

Elev 1043 ft 43.98 °N, 75.37 °W | Updated 7 minutes ago

Clear
Clear
29.1 °F
Feels Like 29 °F
N
0.0
Wind Variable Wind from NW
Gusts 0.0 mph

Today
High -- | Low -- °F
--% Chance of Precip.
Yesterday
High -- | Low -- °F
Precip. -- in
5:28 AM 8:28 PM
Waxing Crescent, 29% visible
Pressure 30.37 in
Visibility 10.0 miles
Clouds Clear
Windchill 29 °F
Dew Point 25 °F
Humidity 85%
Rainfall 0.00 in
Snow Depth Not available.
UV 1 out of 12
Pollen 8.70 out of 12
Air Quality Not available.
Flu Activity Widespread
METAR KGTB 231058Z AUTO 21003KT 10SM CLR 02/M02 A3035 RMK AO2 SLP284 T00201025 $

More Conditions Fewer Conditions

Pressure 30.37 in
Visibility 10.0 miles
Clouds Clear
Windchill 29 °F
Dew Point 25 °F
Humidity 85%
Rainfall 0.00 in
Snow Depth Not available.
UV 1 out of 12
Pollen 8.70 out of 12
Air Quality Not available.
Flu Activity Widespread
METAR KGTB 231058Z AUTO 21003KT 10SM CLR 02/M02 A3035 RMK AO2 SLP284 T00201025 $

More Conditions Fewer Conditions

10-Day Weather Forecast

Almanac

Astronomy

May. 23, 2015 Rise Set
Actual Time
Civil Twilight
Nautical Twilight
Astronomical Twilight
Moon
Length of Visible Light
Length of Day
Tomorrow will be .
, % of the Moon is Illuminated

Today's Extremes

State Highs State Lows

Community

WunderPhotos

Upload Photos

1,823,409 photos uploaded!

WunderBlogs® & News

Nearby

Air Quality

  Air Quality AQ Index Pollutant
Not available.

Snow Depth

Station Depth Elevation

Earthquake Activity

City Distance Mag. Time & Date
Minimum magnitude displayed is 2.5.

Coastal Water Temperatures

Place Temperature

Stations

Nearby Weather Stations

Station Location Temp. Windchill Dew Point Humidity Wind Precip. Elev Updated Type
                   
Freeze Warning
Statement as of 3:40 AM EDT on May 23, 2015

... Freeze warning remains in effect until 9 am EDT this morning...

* locations... Jefferson and Lewis counties.

* Timing... into the mid morning hours.

* Temperatures... in the upper 20s to lower 30s.

* Impacts... such temperatures will result in damage to tender
vegetation unless protective measures are taken.

Precautionary/preparedness actions...

A freeze warning is issued when freezing temperatures are
forecast to threaten outdoor plants. If you are in the warned
area you should protect tender vegetation. Also... potted plants
normally left outdoors should be covered or brought inside away
from the cold. Stay tuned to weather radio or other radio and TV
stations for further details or updates.